Bacoor, Philippines
Current Conditions -  °F | °C
As of 7:00 PM on Thursday 27 Nov 2014 (Local Time) from RPLL Reporting Station
Light Rain Light Rain  
Wind Chill: 79°   Ceiling: 9000
Heat Index: 83°   Visibility: 6mi
Dew Point: 79°   Wind: 7mph
Humidity: 100%   Direction: 110°ESE
Pressure: 29.85"   Gusts: NA
Location:  14.46°N, 120.94°E
Report Text: RPLL 271100Z 11006KT 080V140 9000 -RA SCT019 OVC090 26/26 Q1011 TEMPO 8000 RA RMK A2985
Loading
Personal Weather Stations






























Interactive Weather Map New forecast layout! Learn more

10-Day Weather Forecast

Advertisements
Track Severe Weather on mobile